Time;durP1;ratioP1;P1;durP2;ratioP2;P2;SDS_P1;SDS_P2;PMS_P1;PMS_P2;Temp;Humidity;BMP_temperature;BMP_pressure;BME280_temperature;BME280_humidity;BME280_pressure;Samples;Min_cycle;Max_cycle;Signal;HPM_P1;HPM_P2
2020/12/22 00:00:19;;;;;;;28.63;24.20;;;;;;;;;;5005971;28;20198;-58
2020/12/22 00:02:45;;;;;;;28.90;25.70;;;;;;;;;;5013913;28;20524;-57
2020/12/22 00:05:11;;;;;;;29.67;25.30;;;;;;;;;;5010130;28;20187;-58
2020/12/22 00:07:36;;;;;;;26.10;22.23;;;;;;;;;;5017041;28;20605;-58
2020/12/22 00:10:03;;;;;;;28.83;23.37;;;;;;;;;;5015990;28;20680;-57
2020/12/22 00:12:28;;;;;;;27.40;22.50;;;;;;;;;;5011830;28;20671;-57
2020/12/22 00:14:54;;;;;;;26.53;23.63;;;;;;;;;;5009505;28;20608;-57
2020/12/22 00:17:19;;;;;;;28.70;24.60;;;;;;;;;;5013423;28;20204;-59
2020/12/22 00:19:44;;;;;;;29.27;23.27;;;;;;;;;;5000496;28;20177;-58
2020/12/22 00:22:11;;;;;;;26.10;23.20;;;;;;;;;;5011441;28;20170;-58
2020/12/22 00:24:36;;;;;;;28.20;22.93;;;;;;;;;;5016016;28;20655;-58
2020/12/22 00:27:01;;;;;;;28.70;24.55;;;;;;;;;;5020320;28;21225;-61
2020/12/22 00:29:26;;;;;;;27.60;23.55;;;;;;;;;;5021734;28;20187;-59
2020/12/22 00:31:52;;;;;;;27.75;23.98;;;;;;;;;;5014291;28;20178;-60
2020/12/22 00:34:17;;;;;;;26.00;22.13;;;;;;;;;;5009360;28;20168;-58
2020/12/22 00:36:43;;;;;;;27.85;23.50;;;;;;;;;;5016840;28;20743;-59
2020/12/22 00:39:08;;;;;;;27.08;22.23;;;;;;;;;;5010974;28;20658;-58
2020/12/22 00:41:33;;;;;;;27.85;23.00;;;;;;;;;;5013815;28;20168;-59
2020/12/22 00:43:58;;;;;;;29.73;25.40;;;;;;;;;;5015539;28;20174;-58
2020/12/22 00:46:23;;;;;;;29.17;23.20;;;;;;;;;;5022020;28;20171;-58
2020/12/22 00:48:48;;;;;;;27.33;23.00;;;;;;;;;;5023195;28;20183;-59
2020/12/22 00:51:23;;;;;;;30.45;24.50;;;;;;;;;;5013003;28;20181;-58
2020/12/22 00:53:49;;;;;;;28.37;23.00;;;;;;;;;;5009005;28;20173;-58
2020/12/22 00:56:14;;;;;;;27.37;23.40;;;;;;;;;;5008545;28;21011;-59
2020/12/22 00:58:39;;;;;;;28.75;24.40;;;;;;;;;;5016467;28;20326;-63
2020/12/22 01:01:04;;;;;;;29.70;24.45;;;;;;;;;;5010319;28;20189;-59
2020/12/22 01:03:30;;;;;;;31.10;24.17;;;;;;;;;;5016248;28;20667;-59
2020/12/22 01:05:55;;;;;;;29.83;24.57;;;;;;;;;;5007474;28;20190;-59
2020/12/22 01:08:20;;;;;;;29.20;24.65;;;;;;;;;;5014802;28;20182;-58
2020/12/22 01:10:45;;;;;;;34.00;27.02;;;;;;;;;;5020539;28;20177;-59
2020/12/22 01:13:10;;;;;;;30.23;23.80;;;;;;;;;;5008861;28;20177;-59
2020/12/22 01:15:35;;;;;;;29.00;24.08;;;;;;;;;;5018145;28;20188;-61
2020/12/22 01:18:00;;;;;;;31.20;26.08;;;;;;;;;;5020785;28;20674;-59
2020/12/22 01:20:25;;;;;;;26.77;23.95;;;;;;;;;;5013034;28;20240;-59
2020/12/22 01:22:51;;;;;;;27.23;22.88;;;;;;;;;;5008675;28;20179;-60
2020/12/22 01:25:16;;;;;;;24.92;22.15;;;;;;;;;;5017247;28;20672;-59
2020/12/22 01:27:41;;;;;;;28.90;22.33;;;;;;;;;;5018169;28;20224;-59
2020/12/22 01:30:06;;;;;;;27.03;22.30;;;;;;;;;;5014414;28;20176;-59
2020/12/22 01:32:31;;;;;;;27.42;21.33;;;;;;;;;;5012530;28;20231;-59
2020/12/22 01:34:56;;;;;;;26.30;22.67;;;;;;;;;;5018492;28;20189;-60
2020/12/22 01:37:21;;;;;;;24.63;21.50;;;;;;;;;;5010043;28;20227;-59
2020/12/22 01:39:47;;;;;;;25.15;21.52;;;;;;;;;;5019806;28;20169;-60
2020/12/22 01:42:12;;;;;;;27.48;21.88;;;;;;;;;;5014578;28;20266;-59
2020/12/22 01:44:37;;;;;;;22.57;19.73;;;;;;;;;;5012287;28;20657;-59
2020/12/22 01:47:02;;;;;;;25.90;22.03;;;;;;;;;;5005442;28;20660;-60
2020/12/22 01:49:28;;;;;;;26.93;21.03;;;;;;;;;;5017110;28;20188;-59
2020/12/22 01:51:55;;;;;;;22.63;19.03;;;;;;;;;;5016427;28;20182;-60
2020/12/22 01:54:20;;;;;;;23.47;20.30;;;;;;;;;;5014320;28;20601;-60
2020/12/22 01:56:46;;;;;;;25.50;21.10;;;;;;;;;;5009421;28;20700;-59
2020/12/22 01:59:12;;;;;;;22.63;20.27;;;;;;;;;;5016231;28;20177;-59
2020/12/22 02:01:37;;;;;;;21.83;19.50;;;;;;;;;;5010392;28;20629;-59
2020/12/22 02:04:03;;;;;;;21.90;19.47;;;;;;;;;;5014680;28;20177;-59
2020/12/22 02:06:28;;;;;;;20.43;18.30;;;;;;;;;;5004332;28;20174;-59
2020/12/22 02:08:54;;;;;;;21.70;19.37;;;;;;;;;;5020275;28;20607;-59
2020/12/22 02:11:23;;;;;;;21.80;19.17;;;;;;;;;;5010104;28;20295;-59
2020/12/22 02:13:48;;;;;;;21.03;18.27;;;;;;;;;;5008374;28;20266;-60
2020/12/22 02:16:14;;;;;;;20.63;18.27;;;;;;;;;;5009557;28;21116;-59
2020/12/22 02:18:39;;;;;;;21.60;17.60;;;;;;;;;;5019346;28;20185;-59
2020/12/22 02:21:04;;;;;;;21.77;19.47;;;;;;;;;;5020105;28;20200;-59
2020/12/22 02:23:29;;;;;;;21.70;18.83;;;;;;;;;;5013756;28;20304;-59
2020/12/22 02:25:54;;;;;;;22.60;19.37;;;;;;;;;;5016159;28;20576;-60
2020/12/22 02:28:19;;;;;;;22.20;19.23;;;;;;;;;;5019319;28;20664;-59
2020/12/22 02:30:44;;;;;;;20.55;18.35;;;;;;;;;;4999377;28;20191;-59
2020/12/22 02:33:11;;;;;;;20.00;17.75;;;;;;;;;;5007048;28;20257;-59
2020/12/22 02:35:36;;;;;;;21.10;18.80;;;;;;;;;;5016667;28;20647;-59
2020/12/22 02:38:01;;;;;;;20.33;18.13;;;;;;;;;;5009379;28;21175;-59
2020/12/22 02:40:26;;;;;;;22.03;18.27;;;;;;;;;;5011025;28;20724;-59
2020/12/22 02:42:51;;;;;;;19.47;17.37;;;;;;;;;;5013382;28;20188;-59
2020/12/22 02:45:17;;;;;;;20.50;18.30;;;;;;;;;;5002380;28;20569;-59
2020/12/22 02:47:42;;;;;;;22.30;18.73;;;;;;;;;;5018725;28;20261;-59
2020/12/22 02:50:07;;;;;;;20.17;17.98;;;;;;;;;;5019283;28;20187;-60
2020/12/22 02:52:32;;;;;;;22.45;19.30;;;;;;;;;;5014908;28;20188;-60
2020/12/22 02:54:57;;;;;;;20.73;17.85;;;;;;;;;;5007369;28;20215;-60
2020/12/22 02:57:22;;;;;;;21.88;19.02;;;;;;;;;;5015810;28;20676;-60
2020/12/22 02:59:47;;;;;;;24.30;19.83;;;;;;;;;;5001918;28;20425;-60
2020/12/22 03:02:13;;;;;;;22.30;19.53;;;;;;;;;;5010643;28;20181;-60
2020/12/22 03:04:38;;;;;;;27.55;20.25;;;;;;;;;;5013287;28;20271;-60
2020/12/22 03:07:03;;;;;;;23.67;20.93;;;;;;;;;;5019101;28;20171;-60
2020/12/22 03:09:28;;;;;;;22.70;20.27;;;;;;;;;;5018676;28;20259;-60
2020/12/22 03:11:53;;;;;;;24.30;21.20;;;;;;;;;;5008878;28;20210;-60
2020/12/22 03:14:18;;;;;;;27.10;21.13;;;;;;;;;;5015005;28;20177;-60
2020/12/22 03:16:43;;;;;;;28.98;22.33;;;;;;;;;;5009479;28;20205;-60
2020/12/22 03:19:09;;;;;;;27.35;21.48;;;;;;;;;;5020569;28;20172;-60
2020/12/22 03:21:34;;;;;;;24.77;20.98;;;;;;;;;;5008011;28;20639;-60
2020/12/22 03:23:59;;;;;;;23.20;20.70;;;;;;;;;;5011620;28;20255;-60
2020/12/22 03:26:24;;;;;;;25.48;21.45;;;;;;;;;;5015620;28;20299;-60
2020/12/22 03:28:49;;;;;;;22.08;19.23;;;;;;;;;;5011758;28;20919;-59
2020/12/22 03:31:14;;;;;;;22.87;19.37;;;;;;;;;;5012722;28;20179;-60
2020/12/22 03:33:39;;;;;;;22.83;19.07;;;;;;;;;;5010192;28;20239;-60
2020/12/22 03:36:05;;;;;;;26.33;20.02;;;;;;;;;;5011817;28;20213;-60
2020/12/22 03:38:30;;;;;;;20.73;18.27;;;;;;;;;;5019695;28;20210;-60
2020/12/22 03:40:55;;;;;;;20.10;17.43;;;;;;;;;;5009735;28;20188;-60
2020/12/22 03:43:20;;;;;;;16.90;15.10;;;;;;;;;;4999748;28;20207;-59
2020/12/22 03:45:46;;;;;;;19.85;16.92;;;;;;;;;;5010347;28;20235;-60
2020/12/22 03:48:11;;;;;;;16.97;15.17;;;;;;;;;;5011447;28;20264;-60
2020/12/22 03:50:36;;;;;;;15.15;13.65;;;;;;;;;;5005026;28;20223;-60
2020/12/22 03:53:01;;;;;;;17.05;13.82;;;;;;;;;;5011234;28;20259;-59
2020/12/22 03:55:26;;;;;;;15.23;13.60;;;;;;;;;;5008175;28;20177;-59
2020/12/22 03:57:51;;;;;;;15.23;13.40;;;;;;;;;;5016388;28;20254;-59
2020/12/22 04:00:17;;;;;;;13.73;12.33;;;;;;;;;;5014270;28;20223;-59
2020/12/22 04:02:42;;;;;;;11.63;10.53;;;;;;;;;;5015580;28;20166;-59
2020/12/22 04:05:07;;;;;;;11.50;10.27;;;;;;;;;;5010600;28;20177;-59
2020/12/22 04:07:32;;;;;;;11.53;10.33;;;;;;;;;;5020428;28;20222;-59
2020/12/22 04:10:18;;;;;;;10.75;9.73;;;;;;;;;;5015050;28;20209;-59
2020/12/22 04:12:43;;;;;;;11.33;9.50;;;;;;;;;;4987418;28;20558;-59
2020/12/22 04:15:08;;;;;;;10.85;9.40;;;;;;;;;;5008743;28;20612;-59
2020/12/22 04:17:34;;;;;;;10.15;9.15;;;;;;;;;;5021391;28;20207;-58
2020/12/22 04:19:59;;;;;;;10.10;9.20;;;;;;;;;;5016270;28;20206;-58
2020/12/22 04:22:24;;;;;;;11.18;10.07;;;;;;;;;;5002155;28;20187;-58
2020/12/22 04:24:49;;;;;;;11.38;10.27;;;;;;;;;;5021375;28;20197;-58
2020/12/22 04:27:14;;;;;;;11.20;10.10;;;;;;;;;;5017948;28;20745;-58
2020/12/22 04:29:39;;;;;;;12.70;10.60;;;;;;;;;;5013336;28;20204;-59
2020/12/22 04:32:04;;;;;;;11.93;10.73;;;;;;;;;;5019522;28;20180;-58
2020/12/22 04:34:30;;;;;;;11.50;10.37;;;;;;;;;;5006638;28;20170;-59
2020/12/22 04:36:55;;;;;;;13.65;11.40;;;;;;;;;;5011175;28;20205;-59
2020/12/22 04:39:20;;;;;;;13.30;12.00;;;;;;;;;;5016563;28;20205;-58
2020/12/22 04:41:47;;;;;;;13.00;11.70;;;;;;;;;;5014228;28;20309;-58
2020/12/22 04:44:13;;;;;;;13.77;12.37;;;;;;;;;;5008277;28;20174;-58
2020/12/22 04:46:38;;;;;;;14.30;12.80;;;;;;;;;;5010012;28;20618;-58
2020/12/22 04:49:05;;;;;;;14.60;13.07;;;;;;;;;;5022773;28;20256;-58
2020/12/22 04:51:30;;;;;;;15.40;13.43;;;;;;;;;;5006007;28;20392;-58
2020/12/22 04:53:55;;;;;;;18.57;14.80;;;;;;;;;;5011885;28;20600;-58
2020/12/22 04:56:21;;;;;;;17.53;14.33;;;;;;;;;;5016159;28;20758;-58
2020/12/22 04:58:46;;;;;;;14.87;13.37;;;;;;;;;;5014237;28;20264;-59
2020/12/22 05:01:12;;;;;;;15.83;14.17;;;;;;;;;;5018295;28;20746;-58
2020/12/22 05:03:37;;;;;;;14.67;13.10;;;;;;;;;;5018099;28;20255;-58
2020/12/22 05:06:03;;;;;;;15.52;13.88;;;;;;;;;;5015929;28;21180;-58
2020/12/22 05:08:28;;;;;;;13.97;12.47;;;;;;;;;;5023554;28;20260;-58
2020/12/22 05:10:53;;;;;;;13.20;11.95;;;;;;;;;;5020896;28;20184;-58
2020/12/22 05:13:19;;;;;;;13.10;11.80;;;;;;;;;;5018659;28;20698;-58
2020/12/22 05:15:46;;;;;;;14.37;12.90;;;;;;;;;;5014197;28;20213;-58
2020/12/22 05:18:12;;;;;;;13.07;11.90;;;;;;;;;;5016425;28;20189;-58
2020/12/22 05:20:40;;;;;;;12.25;11.05;;;;;;;;;;5019742;28;20685;-58
2020/12/22 05:23:18;;;;;;;12.00;10.47;;;;;;;;;;5009852;28;20180;-58
2020/12/22 05:25:44;;;;;;;11.50;10.40;;;;;;;;;;5010790;28;21221;-58
2020/12/22 05:28:12;;;;;;;11.63;10.33;;;;;;;;;;5010528;28;20596;-58
2020/12/22 05:30:38;;;;;;;9.07;8.17;;;;;;;;;;5016124;28;20615;-57
2020/12/22 05:33:03;;;;;;;10.10;9.10;;;;;;;;;;5015050;28;21078;-57
2020/12/22 05:35:32;;;;;;;9.40;8.60;;;;;;;;;;5013647;28;20648;-58
2020/12/22 05:38:00;;;;;;;9.27;8.40;;;;;;;;;;5007773;28;20181;-57
2020/12/22 05:40:26;;;;;;;10.13;9.23;;;;;;;;;;5014740;28;20619;-57
2020/12/22 05:42:52;;;;;;;10.47;9.37;;;;;;;;;;5015994;28;21145;-57
2020/12/22 05:45:18;;;;;;;11.37;10.37;;;;;;;;;;5016643;28;20711;-58
2020/12/22 05:47:43;;;;;;;18.10;9.75;;;;;;;;;;5015453;28;21193;-57
2020/12/22 05:50:08;;;;;;;11.82;10.63;;;;;;;;;;5017970;28;20244;-57
2020/12/22 05:52:33;;;;;;;10.93;9.80;;;;;;;;;;5013923;28;20198;-57
2020/12/22 05:54:59;;;;;;;10.50;9.50;;;;;;;;;;5015014;28;20174;-57
2020/12/22 05:57:25;;;;;;;12.03;10.30;;;;;;;;;;5016137;28;20544;-57
2020/12/22 05:59:51;;;;;;;9.93;9.03;;;;;;;;;;5012998;28;20651;-57
2020/12/22 06:02:22;;;;;;;9.43;8.63;;;;;;;;;;5020249;28;20637;-58
2020/12/22 06:04:48;;;;;;;11.80;10.63;;;;;;;;;;5013962;28;20181;-58
2020/12/22 06:07:13;;;;;;;10.33;9.43;;;;;;;;;;5017813;28;20611;-58
2020/12/22 06:09:38;;;;;;;9.75;8.85;;;;;;;;;;5013955;28;20177;-57
2020/12/22 06:12:06;;;;;;;10.80;9.50;;;;;;;;;;5021988;28;20235;-57
2020/12/22 06:14:32;;;;;;;9.90;9.00;;;;;;;;;;5005199;28;20261;-58
2020/12/22 06:17:04;;;;;;;11.23;10.17;;;;;;;;;;5000375;28;20736;-58
2020/12/22 06:19:29;;;;;;;9.60;8.70;;;;;;;;;;5010188;28;20173;-57
2020/12/22 06:21:57;;;;;;;10.57;9.60;;;;;;;;;;5008400;28;21002;-58
2020/12/22 06:24:22;;;;;;;9.07;8.23;;;;;;;;;;5005879;28;20646;-58
2020/12/22 06:26:58;;;;;;;11.30;10.20;;;;;;;;;;5011228;28;21233;-58
2020/12/22 06:29:26;;;;;;;10.70;9.70;;;;;;;;;;5000824;28;20176;-58
2020/12/22 06:31:51;;;;;;;11.07;10.00;;;;;;;;;;5004932;28;20624;-58
2020/12/22 06:34:23;;;;;;;10.87;9.77;;;;;;;;;;5018207;28;21146;-58
2020/12/22 06:36:55;;;;;;;11.13;10.03;;;;;;;;;;5006238;28;20196;-58
2020/12/22 06:39:24;;;;;;;10.47;9.57;;;;;;;;;;5018358;28;20608;-58
2020/12/22 06:41:50;;;;;;;10.43;9.43;;;;;;;;;;5017382;28;20604;-59
2020/12/22 06:44:15;;;;;;;11.20;10.20;;;;;;;;;;4998839;28;21167;-59
2020/12/22 06:46:42;;;;;;;10.73;9.83;;;;;;;;;;5007297;28;20204;-59
2020/12/22 06:49:08;;;;;;;11.23;10.10;;;;;;;;;;5017047;28;20243;-59
2020/12/22 06:51:34;;;;;;;10.93;9.43;;;;;;;;;;5010132;28;21063;-58
2020/12/22 06:54:23;;;;;;;9.70;8.70;;;;;;;;;;5001992;28;20546;-58
2020/12/22 06:56:50;;;;;;;8.97;8.17;;;;;;;;;;5008714;28;21015;-59
2020/12/22 06:59:34;;;;;;;10.40;9.37;;;;;;;;;;5012450;28;20633;-58
2020/12/22 07:01:59;;;;;;;9.87;9.00;;;;;;;;;;5012432;28;20615;-58
2020/12/22 07:04:24;;;;;;;12.53;10.13;;;;;;;;;;5007145;28;20674;-58
2020/12/22 07:06:50;;;;;;;11.35;10.38;;;;;;;;;;5016387;28;20534;-58
2020/12/22 07:09:26;;;;;;;11.17;10.07;;;;;;;;;;5013924;28;20599;-58
2020/12/22 07:11:52;;;;;;;10.60;9.40;;;;;;;;;;5012474;28;20599;-59
2020/12/22 07:14:17;;;;;;;11.17;9.77;;;;;;;;;;5002594;28;20600;-58
2020/12/22 07:17:09;;;;;;;13.67;9.50;;;;;;;;;;5019025;28;20625;-59
2020/12/22 07:19:35;;;;;;;10.27;9.17;;;;;;;;;;4996250;28;20769;-58
2020/12/22 07:22:04;;;;;;;11.50;10.37;;;;;;;;;;4998977;28;20743;-58
2020/12/22 07:24:30;;;;;;;11.40;10.17;;;;;;;;;;4988961;28;20194;-58
2020/12/22 07:26:56;;;;;;;10.63;9.53;;;;;;;;;;5002848;28;20669;-58
2020/12/22 07:29:21;;;;;;;11.17;10.07;;;;;;;;;;5000784;28;20624;-59
2020/12/22 07:31:47;;;;;;;10.93;9.83;;;;;;;;;;5007070;28;20195;-58
2020/12/22 07:34:12;;;;;;;11.93;10.73;;;;;;;;;;4990553;28;20962;-56
2020/12/22 07:36:37;;;;;;;12.27;11.07;;;;;;;;;;5000435;28;20214;-56
2020/12/22 07:39:10;;;;;;;12.40;11.10;;;;;;;;;;5011069;28;20186;-56
2020/12/22 07:41:35;;;;;;;11.47;10.37;;;;;;;;;;4992268;28;20568;-57
2020/12/22 07:44:12;;;;;;;10.80;9.70;;;;;;;;;;4999736;28;20627;-57
2020/12/22 07:46:38;;;;;;;10.93;9.63;;;;;;;;;;5007206;28;20197;-57
2020/12/22 07:49:04;;;;;;;10.37;8.90;;;;;;;;;;5010574;28;20643;-57
2020/12/22 07:51:29;;;;;;;11.37;10.20;;;;;;;;;;4993826;28;20262;-57
2020/12/22 07:54:01;;;;;;;11.38;10.25;;;;;;;;;;4990044;28;20701;-57
2020/12/22 07:56:26;;;;;;;11.50;10.40;;;;;;;;;;5008394;28;20250;-58
2020/12/22 07:58:52;;;;;;;12.57;11.30;;;;;;;;;;4998918;28;20671;-58
2020/12/22 08:01:18;;;;;;;12.10;10.90;;;;;;;;;;5001886;28;20559;-57
2020/12/22 08:03:43;;;;;;;11.70;10.60;;;;;;;;;;5005938;28;20193;-57
2020/12/22 08:06:10;;;;;;;12.87;11.50;;;;;;;;;;4993966;28;20183;-57
2020/12/22 08:08:36;;;;;;;11.93;10.67;;;;;;;;;;5006702;28;20183;-57
2020/12/22 08:11:01;;;;;;;12.20;10.87;;;;;;;;;;5013338;28;20650;-58
2020/12/22 08:13:29;;;;;;;11.60;10.50;;;;;;;;;;5008622;28;20623;-57
2020/12/22 08:15:54;;;;;;;14.10;12.63;;;;;;;;;;5011167;28;20398;-56
2020/12/22 08:18:19;;;;;;;13.30;12.00;;;;;;;;;;5002097;28;20726;-57
2020/12/22 08:20:45;;;;;;;12.03;10.80;;;;;;;;;;4996085;28;20170;-57
2020/12/22 08:23:10;;;;;;;11.53;10.43;;;;;;;;;;5006961;28;20621;-57
2020/12/22 08:25:36;;;;;;;12.23;11.03;;;;;;;;;;5002967;28;20198;-58
2020/12/22 08:28:01;;;;;;;11.95;10.75;;;;;;;;;;5009806;28;20524;-56
2020/12/22 08:30:26;;;;;;;11.65;10.55;;;;;;;;;;5001107;28;20178;-58
2020/12/22 08:32:53;;;;;;;11.57;10.47;;;;;;;;;;4993539;28;20174;-58
2020/12/22 08:35:24;;;;;;;11.50;10.43;;;;;;;;;;4995840;28;20224;-58
2020/12/22 08:37:49;;;;;;;11.90;10.60;;;;;;;;;;5016488;28;20645;-58
2020/12/22 08:40:27;;;;;;;13.10;11.90;;;;;;;;;;5014568;28;20633;-58
2020/12/22 08:42:52;;;;;;;12.40;11.10;;;;;;;;;;5022352;28;20174;-58
2020/12/22 08:45:17;;;;;;;11.13;10.03;;;;;;;;;;5008445;28;20602;-58
2020/12/22 08:47:49;;;;;;;11.32;10.32;;;;;;;;;;5016027;28;20205;-59
2020/12/22 08:50:14;;;;;;;11.00;9.80;;;;;;;;;;4998546;28;20184;-58
2020/12/22 08:52:40;;;;;;;11.03;9.97;;;;;;;;;;5005932;28;20677;-58
2020/12/22 08:55:10;;;;;;;12.88;11.55;;;;;;;;;;4996775;28;20186;-58
2020/12/22 08:57:35;;;;;;;15.30;12.13;;;;;;;;;;5012475;28;20212;-58
2020/12/22 09:00:09;;;;;;;11.75;10.57;;;;;;;;;;4999082;28;20701;-58
2020/12/22 09:02:34;;;;;;;11.90;10.00;;;;;;;;;;5012381;28;20179;-58
2020/12/22 09:05:10;;;;;;;15.02;13.38;;;;;;;;;;4994547;28;20610;-58
2020/12/22 09:07:35;;;;;;;17.50;13.40;;;;;;;;;;5012283;28;20186;-58
2020/12/22 09:10:07;;;;;;;16.20;14.50;;;;;;;;;;5014228;28;21164;-58
2020/12/22 09:12:33;;;;;;;13.73;12.07;;;;;;;;;;5017353;28;20183;-58
2020/12/22 09:15:01;;;;;;;12.23;10.97;;;;;;;;;;5003467;28;20615;-57
2020/12/22 09:17:26;;;;;;;15.73;12.70;;;;;;;;;;4996284;28;20216;-58
2020/12/22 09:19:52;;;;;;;10.23;9.23;;;;;;;;;;5009675;28;20614;-57
2020/12/22 09:22:21;;;;;;;8.10;7.30;;;;;;;;;;5004484;28;20178;-56
2020/12/22 09:24:49;;;;;;;7.93;7.23;;;;;;;;;;5015200;28;20243;-57
2020/12/22 09:27:15;;;;;;;14.20;11.57;;;;;;;;;;5002370;28;20715;-56
2020/12/22 09:29:41;;;;;;;17.87;12.63;;;;;;;;;;5007713;28;21199;-56
2020/12/22 09:32:07;;;;;;;9.00;8.10;;;;;;;;;;5009940;28;20654;-56
2020/12/22 09:34:34;;;;;;;11.70;10.50;;;;;;;;;;5005664;28;20186;-57
2020/12/22 09:37:00;;;;;;;10.77;9.67;;;;;;;;;;5002917;28;21384;-58
2020/12/22 09:39:26;;;;;;;13.60;11.83;;;;;;;;;;4999910;28;20595;-58
2020/12/22 09:41:51;;;;;;;10.17;9.13;;;;;;;;;;5018042;28;20596;-58
2020/12/22 09:44:17;;;;;;;9.10;8.27;;;;;;;;;;5011912;28;20982;-57
2020/12/22 09:46:44;;;;;;;7.33;6.73;;;;;;;;;;5006495;28;20177;-58
2020/12/22 09:49:09;;;;;;;5.03;4.63;;;;;;;;;;5000949;28;20268;-58
2020/12/22 09:51:34;;;;;;;5.20;4.70;;;;;;;;;;5009471;28;20694;-58
2020/12/22 09:54:00;;;;;;;4.90;4.50;;;;;;;;;;5005520;28;20586;-58
2020/12/22 09:56:25;;;;;;;5.87;5.37;;;;;;;;;;5001982;28;20231;-58
2020/12/22 09:58:50;;;;;;;8.20;6.03;;;;;;;;;;4993963;28;20189;-58
2020/12/22 10:01:22;;;;;;;5.87;5.37;;;;;;;;;;5006901;28;20181;-58
2020/12/22 10:03:47;;;;;;;6.40;5.80;;;;;;;;;;5003452;28;20670;-58
2020/12/22 10:06:16;;;;;;;6.97;6.27;;;;;;;;;;5004886;28;20610;-57
2020/12/22 10:08:41;;;;;;;2.73;2.53;;;;;;;;;;5005904;28;20564;-57
2020/12/22 10:11:06;;;;;;;1.77;1.67;;;;;;;;;;5011473;28;20598;-58
2020/12/22 10:13:41;;;;;;;1.58;1.40;;;;;;;;;;5006212;28;20179;-56
2020/12/22 10:16:06;;;;;;;1.50;1.40;;;;;;;;;;5009861;28;20215;-58
2020/12/22 10:18:31;;;;;;;1.10;1.00;;;;;;;;;;4993180;28;20699;-58
2020/12/22 10:21:00;;;;;;;1.27;0.80;;;;;;;;;;5013572;28;20175;-56
2020/12/22 10:23:25;;;;;;;0.80;0.80;;;;;;;;;;4997486;28;20207;-58
2020/12/22 10:25:50;;;;;;;0.68;0.68;;;;;;;;;;4999585;28;20689;-56
2020/12/22 10:28:15;;;;;;;0.77;0.77;;;;;;;;;;5014445;28;20181;-56
2020/12/22 10:30:40;;;;;;;0.70;0.70;;;;;;;;;;5004327;28;20276;-57
2020/12/22 10:33:05;;;;;;;1.40;0.70;;;;;;;;;;5002826;28;20208;-58
2020/12/22 10:35:30;;;;;;;0.80;0.80;;;;;;;;;;4991011;28;20645;-56
2020/12/22 10:37:56;;;;;;;0.80;0.80;;;;;;;;;;5010205;28;20668;-57
2020/12/22 10:40:21;;;;;;;0.73;0.70;;;;;;;;;;5008229;28;20181;-56
2020/12/22 10:42:46;;;;;;;0.80;0.73;;;;;;;;;;5009011;28;20398;-57
2020/12/22 10:45:11;;;;;;;0.75;0.75;;;;;;;;;;4994202;28;20637;-56
2020/12/22 10:47:36;;;;;;;0.70;0.67;;;;;;;;;;4991765;28;20193;-56
2020/12/22 10:50:01;;;;;;;0.75;0.75;;;;;;;;;;5001960;28;20185;-56
2020/12/22 10:52:26;;;;;;;0.90;0.90;;;;;;;;;;5014025;28;20591;-57
2020/12/22 10:54:52;;;;;;;0.60;0.60;;;;;;;;;;4993164;28;20401;-57
2020/12/22 10:57:17;;;;;;;0.50;0.50;;;;;;;;;;5010105;28;20578;-56
2020/12/22 10:59:42;;;;;;;0.80;0.80;;;;;;;;;;5007123;28;20203;-57
2020/12/22 11:02:07;;;;;;;0.80;0.80;;;;;;;;;;4990534;28;20194;-57
2020/12/22 11:04:32;;;;;;;0.53;0.53;;;;;;;;;;4990339;28;20668;-56
2020/12/22 11:09:25;;;;;;;0.70;0.70;;;;;;;;;;4990443;28;20541;-56
2020/12/22 11:11:50;;;;;;;0.87;0.83;;;;;;;;;;5006511;28;20608;-57
2020/12/22 11:14:16;;;;;;;0.55;0.55;;;;;;;;;;5009864;28;20186;-57
2020/12/22 11:16:41;;;;;;;0.60;0.60;;;;;;;;;;5004270;28;20213;-57
2020/12/22 11:19:06;;;;;;;0.87;0.87;;;;;;;;;;5010084;28;20544;-57
2020/12/22 11:21:31;;;;;;;0.77;0.77;;;;;;;;;;5003266;28;20170;-57
2020/12/22 11:23:57;;;;;;;0.77;0.77;;;;;;;;;;4995876;28;20218;-57
2020/12/22 11:26:22;;;;;;;0.60;0.60;;;;;;;;;;4988530;28;20218;-57
2020/12/22 11:28:48;;;;;;;1.30;0.70;;;;;;;;;;4990313;28;20673;-57
2020/12/22 11:31:13;;;;;;;3.60;1.10;;;;;;;;;;4991923;28;20170;-57
2020/12/22 11:33:40;;;;;;;0.70;0.70;;;;;;;;;;5002908;28;21189;-57
2020/12/22 11:36:05;;;;;;;0.80;0.50;;;;;;;;;;4996228;28;20218;-57
2020/12/22 11:38:30;;;;;;;1.20;0.55;;;;;;;;;;4990930;28;20606;-57
2020/12/22 11:40:56;;;;;;;1.48;0.60;;;;;;;;;;5005431;28;20171;-57
2020/12/22 11:43:21;;;;;;;0.73;0.73;;;;;;;;;;5004613;28;20183;-57
2020/12/22 11:45:46;;;;;;;4.77;1.00;;;;;;;;;;5001540;28;20171;-57
2020/12/22 11:48:11;;;;;;;3.50;1.13;;;;;;;;;;4997043;28;20364;-58
2020/12/22 11:50:36;;;;;;;4.20;1.10;;;;;;;;;;4994897;28;20167;-56
2020/12/22 11:53:01;;;;;;;2.28;0.90;;;;;;;;;;5004832;28;20180;-56
2020/12/22 11:55:27;;;;;;;0.90;0.60;;;;;;;;;;4995741;28;20204;-56
2020/12/22 11:57:52;;;;;;;0.90;0.77;;;;;;;;;;5002290;28;20612;-57
2020/12/22 12:00:17;;;;;;;0.60;0.60;;;;;;;;;;5001727;28;20637;-57
2020/12/22 12:02:42;;;;;;;1.37;0.70;;;;;;;;;;5007943;28;20656;-57
2020/12/22 12:05:07;;;;;;;0.80;0.80;;;;;;;;;;4989803;28;20211;-57
2020/12/22 12:07:32;;;;;;;0.60;0.60;;;;;;;;;;4996992;28;20178;-57
2020/12/22 12:09:59;;;;;;;4.10;0.80;;;;;;;;;;5000655;28;20174;-56
2020/12/22 12:12:24;;;;;;;0.80;0.80;;;;;;;;;;4994583;28;20229;-57
2020/12/22 12:14:49;;;;;;;0.77;0.77;;;;;;;;;;4991881;28;20662;-57
2020/12/22 12:17:15;;;;;;;0.77;0.77;;;;;;;;;;5001935;28;20302;-57
2020/12/22 12:19:40;;;;;;;0.80;0.80;;;;;;;;;;5009097;28;20630;-58
2020/12/22 12:22:05;;;;;;;0.68;0.60;;;;;;;;;;5002871;28;20188;-58
2020/12/22 12:24:30;;;;;;;0.90;0.90;;;;;;;;;;4999204;28;20199;-57
2020/12/22 12:26:55;;;;;;;0.80;0.70;;;;;;;;;;4999999;28;20931;-58
2020/12/22 12:29:20;;;;;;;0.60;0.60;;;;;;;;;;5007917;28;20262;-58
2020/12/22 12:31:47;;;;;;;0.63;0.63;;;;;;;;;;4995280;28;20176;-58
2020/12/22 12:34:12;;;;;;;3.87;1.00;;;;;;;;;;4993624;28;20188;-57
2020/12/22 12:36:37;;;;;;;1.33;0.90;;;;;;;;;;4998136;28;21034;-58
2020/12/22 12:39:02;;;;;;;0.80;0.52;;;;;;;;;;5002103;28;20181;-57
2020/12/22 12:41:29;;;;;;;0.80;0.60;;;;;;;;;;5001303;28;20538;-58
2020/12/22 12:43:54;;;;;;;0.67;0.67;;;;;;;;;;5003996;28;20270;-58
2020/12/22 12:46:19;;;;;;;0.95;0.85;;;;;;;;;;5017533;28;20709;-58
2020/12/22 12:48:45;;;;;;;0.80;0.60;;;;;;;;;;5010587;28;20199;-58
2020/12/22 12:51:10;;;;;;;0.80;0.80;;;;;;;;;;4999286;28;20178;-58
2020/12/22 12:53:37;;;;;;;0.80;0.80;;;;;;;;;;5004429;28;20603;-57
2020/12/22 12:56:03;;;;;;;1.00;0.80;;;;;;;;;;4999144;28;20182;-58
2020/12/22 12:58:28;;;;;;;0.80;0.60;;;;;;;;;;4998411;28;20773;-57
2020/12/22 13:00:53;;;;;;;1.40;0.70;;;;;;;;;;5006873;28;20273;-57
2020/12/22 13:03:18;;;;;;;0.70;0.70;;;;;;;;;;5006700;28;20245;-57
2020/12/22 13:05:44;;;;;;;0.88;0.73;;;;;;;;;;4995034;28;20716;-57
2020/12/22 13:08:09;;;;;;;0.70;0.70;;;;;;;;;;5005111;28;20229;-57
2020/12/22 13:10:34;;;;;;;0.60;0.60;;;;;;;;;;5004041;28;20179;-58
2020/12/22 13:12:59;;;;;;;0.93;0.70;;;;;;;;;;4998833;28;20183;-57
2020/12/22 13:15:24;;;;;;;0.70;0.70;;;;;;;;;;4999166;28;20246;-57
2020/12/22 13:17:49;;;;;;;0.75;0.75;;;;;;;;;;5002173;28;20216;-58
2020/12/22 13:20:14;;;;;;;0.82;0.82;;;;;;;;;;4997581;28;20168;-57
2020/12/22 13:22:40;;;;;;;1.00;0.80;;;;;;;;;;5000916;28;20167;-58
2020/12/22 13:25:05;;;;;;;1.00;0.70;;;;;;;;;;5003421;28;20683;-56
2020/12/22 13:27:30;;;;;;;0.50;0.50;;;;;;;;;;5005989;28;20317;-56
2020/12/22 13:29:55;;;;;;;0.70;0.70;;;;;;;;;;5002358;28;20704;-55
2020/12/22 13:32:20;;;;;;;0.60;0.60;;;;;;;;;;4999692;28;20662;-56
2020/12/22 13:34:46;;;;;;;0.93;0.60;;;;;;;;;;5005769;28;20179;-55
2020/12/22 13:37:11;;;;;;;2.13;1.00;;;;;;;;;;5004280;28;20207;-55
2020/12/22 13:39:36;;;;;;;1.20;0.70;;;;;;;;;;5000721;28;20190;-56
2020/12/22 13:42:01;;;;;;;0.60;0.60;;;;;;;;;;5008311;28;20181;-56
2020/12/22 13:44:26;;;;;;;0.80;0.80;;;;;;;;;;4999749;28;20180;-55
2020/12/22 13:46:51;;;;;;;1.00;1.00;;;;;;;;;;4996728;28;20286;-56
2020/12/22 13:49:17;;;;;;;1.20;0.90;;;;;;;;;;5000190;28;20716;-55
2020/12/22 13:51:42;;;;;;;0.60;0.60;;;;;;;;;;4995831;28;20266;-56
2020/12/22 13:54:07;;;;;;;0.70;0.70;;;;;;;;;;5007871;28;20190;-56
2020/12/22 13:56:32;;;;;;;2.93;0.80;;;;;;;;;;5006653;28;20202;-55
2020/12/22 13:58:57;;;;;;;1.48;0.75;;;;;;;;;;5012603;28;20201;-56
2020/12/22 14:01:29;;;;;;;0.87;0.87;;;;;;;;;;5000031;28;20190;-56
2020/12/22 14:03:54;;;;;;;0.80;0.80;;;;;;;;;;5003088;28;20175;-56
2020/12/22 14:06:20;;;;;;;0.70;0.70;;;;;;;;;;4998532;28;20676;-57
2020/12/22 14:08:46;;;;;;;0.87;0.87;;;;;;;;;;5002665;28;20181;-56
2020/12/22 14:11:11;;;;;;;0.90;0.90;;;;;;;;;;5007006;28;20632;-56
2020/12/22 14:13:36;;;;;;;0.85;0.85;;;;;;;;;;4999056;28;20253;-56
2020/12/22 14:16:01;;;;;;;0.80;0.80;;;;;;;;;;4997628;28;20182;-56
2020/12/22 14:18:26;;;;;;;0.80;0.80;;;;;;;;;;4993605;28;20236;-56
2020/12/22 14:20:51;;;;;;;1.00;0.90;;;;;;;;;;4999460;28;20577;-56
2020/12/22 14:23:18;;;;;;;0.75;0.75;;;;;;;;;;4992086;28;20174;-56